sensor_id;sensor_type;location;lat;lon;timestamp;temperature;humidity
7708;DHT22;3896;48.758;8.888;2023-11-21T00:00:05;8.70;99.90
7708;DHT22;3896;48.758;8.888;2023-11-21T00:02:36;8.70;99.90
7708;DHT22;3896;48.758;8.888;2023-11-21T00:05:04;8.70;99.90
7708;DHT22;3896;48.758;8.888;2023-11-21T00:07:30;8.70;99.90
7708;DHT22;3896;48.758;8.888;2023-11-21T00:09:55;8.70;99.90
7708;DHT22;3896;48.758;8.888;2023-11-21T00:12:21;8.70;99.90
7708;DHT22;3896;48.758;8.888;2023-11-21T00:14:47;8.70;99.90
7708;DHT22;3896;48.758;8.888;2023-11-21T00:17:12;8.70;99.90
7708;DHT22;3896;48.758;8.888;2023-11-21T00:19:38;8.70;99.90
7708;DHT22;3896;48.758;8.888;2023-11-21T00:22:04;8.70;99.90
7708;DHT22;3896;48.758;8.888;2023-11-21T00:24:29;8.70;99.90
7708;DHT22;3896;48.758;8.888;2023-11-21T00:26:55;8.70;99.90
7708;DHT22;3896;48.758;8.888;2023-11-21T00:29:20;8.70;99.90
7708;DHT22;3896;48.758;8.888;2023-11-21T00:31:46;8.70;99.90
7708;DHT22;3896;48.758;8.888;2023-11-21T00:34:12;8.70;99.90
7708;DHT22;3896;48.758;8.888;2023-11-21T00:36:38;8.70;99.90
7708;DHT22;3896;48.758;8.888;2023-11-21T00:39:03;8.70;99.90
7708;DHT22;3896;48.758;8.888;2023-11-21T00:41:31;8.70;99.90
7708;DHT22;3896;48.758;8.888;2023-11-21T00:43:57;8.70;99.90
7708;DHT22;3896;48.758;8.888;2023-11-21T00:46:22;8.80;99.90
7708;DHT22;3896;48.758;8.888;2023-11-21T00:48:49;8.80;99.90
7708;DHT22;3896;48.758;8.888;2023-11-21T00:51:15;8.80;99.90
7708;DHT22;3896;48.758;8.888;2023-11-21T00:53:40;8.80;99.90
7708;DHT22;3896;48.758;8.888;2023-11-21T00:56:06;8.80;99.90
7708;DHT22;3896;48.758;8.888;2023-11-21T00:58:33;8.90;99.90
7708;DHT22;3896;48.758;8.888;2023-11-21T01:00:59;8.90;99.90
7708;DHT22;3896;48.758;8.888;2023-11-21T01:03:25;8.90;99.90
7708;DHT22;3896;48.758;8.888;2023-11-21T01:05:50;8.90;99.90
7708;DHT22;3896;48.758;8.888;2023-11-21T01:08:16;8.90;99.90
7708;DHT22;3896;48.758;8.888;2023-11-21T01:10:41;8.90;99.90
7708;DHT22;3896;48.758;8.888;2023-11-21T01:13:07;8.90;99.90
7708;DHT22;3896;48.758;8.888;2023-11-21T01:15:33;8.90;99.90
7708;DHT22;3896;48.758;8.888;2023-11-21T01:17:59;8.90;99.90
7708;DHT22;3896;48.758;8.888;2023-11-21T01:20:24;8.90;99.90
7708;DHT22;3896;48.758;8.888;2023-11-21T01:22:50;8.90;99.90
7708;DHT22;3896;48.758;8.888;2023-11-21T01:25:16;8.90;99.90
7708;DHT22;3896;48.758;8.888;2023-11-21T01:27:42;9.00;99.90
7708;DHT22;3896;48.758;8.888;2023-11-21T01:30:08;9.00;99.90
7708;DHT22;3896;48.758;8.888;2023-11-21T01:32:36;9.00;99.90
7708;DHT22;3896;48.758;8.888;2023-11-21T01:35:02;9.00;99.90
7708;DHT22;3896;48.758;8.888;2023-11-21T01:37:27;9.00;99.90
7708;DHT22;3896;48.758;8.888;2023-11-21T01:39:54;9.00;99.90
7708;DHT22;3896;48.758;8.888;2023-11-21T01:42:23;9.00;99.90
7708;DHT22;3896;48.758;8.888;2023-11-21T01:44:48;9.00;99.90
7708;DHT22;3896;48.758;8.888;2023-11-21T01:47:14;9.00;99.90
7708;DHT22;3896;48.758;8.888;2023-11-21T01:49:44;9.00;99.90
7708;DHT22;3896;48.758;8.888;2023-11-21T01:52:10;9.00;99.90
7708;DHT22;3896;48.758;8.888;2023-11-21T01:54:37;9.00;99.90
7708;DHT22;3896;48.758;8.888;2023-11-21T01:57:04;9.10;99.90
7708;DHT22;3896;48.758;8.888;2023-11-21T01:59:36;9.00;99.90
7708;DHT22;3896;48.758;8.888;2023-11-21T02:02:03;9.00;99.90
7708;DHT22;3896;48.758;8.888;2023-11-21T02:04:31;9.10;99.90
7708;DHT22;3896;48.758;8.888;2023-11-21T02:06:57;9.10;99.90
7708;DHT22;3896;48.758;8.888;2023-11-21T02:09:27;9.10;99.90
7708;DHT22;3896;48.758;8.888;2023-11-21T02:11:53;9.10;99.90
7708;DHT22;3896;48.758;8.888;2023-11-21T02:14:20;9.10;99.90
7708;DHT22;3896;48.758;8.888;2023-11-21T02:16:51;9.10;99.90
7708;DHT22;3896;48.758;8.888;2023-11-21T02:19:21;9.10;99.90
7708;DHT22;3896;48.758;8.888;2023-11-21T02:21:49;9.10;99.90
7708;DHT22;3896;48.758;8.888;2023-11-21T02:24:19;9.10;99.90
7708;DHT22;3896;48.758;8.888;2023-11-21T02:26:45;9.10;99.90
7708;DHT22;3896;48.758;8.888;2023-11-21T02:29:11;9.10;99.90
7708;DHT22;3896;48.758;8.888;2023-11-21T02:31:38;9.10;99.90
7708;DHT22;3896;48.758;8.888;2023-11-21T02:34:14;9.10;99.90
7708;DHT22;3896;48.758;8.888;2023-11-21T02:36:40;9.10;99.90
7708;DHT22;3896;48.758;8.888;2023-11-21T02:39:05;9.10;99.90
7708;DHT22;3896;48.758;8.888;2023-11-21T02:41:32;9.10;99.90
7708;DHT22;3896;48.758;8.888;2023-11-21T02:44:00;9.10;99.90
7708;DHT22;3896;48.758;8.888;2023-11-21T02:46:25;9.10;99.90
7708;DHT22;3896;48.758;8.888;2023-11-21T02:48:51;9.10;99.90
7708;DHT22;3896;48.758;8.888;2023-11-21T02:51:19;9.10;99.90
7708;DHT22;3896;48.758;8.888;2023-11-21T02:53:44;9.10;99.90
7708;DHT22;3896;48.758;8.888;2023-11-21T02:56:12;9.10;99.90
7708;DHT22;3896;48.758;8.888;2023-11-21T02:58:37;9.10;99.90
7708;DHT22;3896;48.758;8.888;2023-11-21T03:01:03;9.10;99.90
7708;DHT22;3896;48.758;8.888;2023-11-21T03:03:30;9.10;99.90
7708;DHT22;3896;48.758;8.888;2023-11-21T03:05:56;9.10;99.90
7708;DHT22;3896;48.758;8.888;2023-11-21T03:08:22;9.10;99.90
7708;DHT22;3896;48.758;8.888;2023-11-21T03:10:47;9.10;99.90
7708;DHT22;3896;48.758;8.888;2023-11-21T03:13:13;9.10;99.90
7708;DHT22;3896;48.758;8.888;2023-11-21T03:15:38;9.10;99.90
7708;DHT22;3896;48.758;8.888;2023-11-21T03:18:04;9.10;99.90
7708;DHT22;3896;48.758;8.888;2023-11-21T03:20:30;9.10;99.90
7708;DHT22;3896;48.758;8.888;2023-11-21T03:22:56;9.00;99.90
7708;DHT22;3896;48.758;8.888;2023-11-21T03:25:21;9.00;99.90
7708;DHT22;3896;48.758;8.888;2023-11-21T03:27:49;9.00;99.90
7708;DHT22;3896;48.758;8.888;2023-11-21T03:30:14;9.00;99.90
7708;DHT22;3896;48.758;8.888;2023-11-21T03:32:40;9.00;99.90
7708;DHT22;3896;48.758;8.888;2023-11-21T03:35:06;9.00;99.90
7708;DHT22;3896;48.758;8.888;2023-11-21T03:37:32;9.00;99.90
7708;DHT22;3896;48.758;8.888;2023-11-21T03:39:58;9.00;99.90
7708;DHT22;3896;48.758;8.888;2023-11-21T03:42:23;9.00;99.90
7708;DHT22;3896;48.758;8.888;2023-11-21T03:44:51;9.00;99.90
7708;DHT22;3896;48.758;8.888;2023-11-21T03:47:16;9.00;99.90
7708;DHT22;3896;48.758;8.888;2023-11-21T03:49:42;9.00;99.90
7708;DHT22;3896;48.758;8.888;2023-11-21T03:52:07;9.00;99.90
7708;DHT22;3896;48.758;8.888;2023-11-21T03:54:33;9.00;99.90
7708;DHT22;3896;48.758;8.888;2023-11-21T03:56:58;9.00;99.90
7708;DHT22;3896;48.758;8.888;2023-11-21T03:59:24;9.00;99.90
7708;DHT22;3896;48.758;8.888;2023-11-21T04:01:50;9.00;99.90
7708;DHT22;3896;48.758;8.888;2023-11-21T04:04:15;9.00;99.90
7708;DHT22;3896;48.758;8.888;2023-11-21T04:06:41;9.00;99.90
7708;DHT22;3896;48.758;8.888;2023-11-21T04:09:07;9.00;99.90
7708;DHT22;3896;48.758;8.888;2023-11-21T04:11:32;9.00;99.90
7708;DHT22;3896;48.758;8.888;2023-11-21T04:13:58;9.00;99.90
7708;DHT22;3896;48.758;8.888;2023-11-21T04:16:24;9.00;99.90
7708;DHT22;3896;48.758;8.888;2023-11-21T04:18:49;9.00;99.90
7708;DHT22;3896;48.758;8.888;2023-11-21T04:21:15;9.00;99.90
7708;DHT22;3896;48.758;8.888;2023-11-21T04:23:40;9.00;99.90
7708;DHT22;3896;48.758;8.888;2023-11-21T04:26:06;9.00;99.90
7708;DHT22;3896;48.758;8.888;2023-11-21T04:28:32;9.00;99.90
7708;DHT22;3896;48.758;8.888;2023-11-21T04:30:57;9.00;99.90
7708;DHT22;3896;48.758;8.888;2023-11-21T04:33:23;9.00;99.90
7708;DHT22;3896;48.758;8.888;2023-11-21T04:35:49;9.00;99.90
7708;DHT22;3896;48.758;8.888;2023-11-21T04:38:14;9.00;99.90
7708;DHT22;3896;48.758;8.888;2023-11-21T04:40:40;9.00;99.90
7708;DHT22;3896;48.758;8.888;2023-11-21T04:43:05;9.00;99.90
7708;DHT22;3896;48.758;8.888;2023-11-21T04:45:31;9.00;99.90
7708;DHT22;3896;48.758;8.888;2023-11-21T04:47:56;9.00;99.90
7708;DHT22;3896;48.758;8.888;2023-11-21T04:50:22;9.00;99.90
7708;DHT22;3896;48.758;8.888;2023-11-21T04:52:48;9.00;99.90
7708;DHT22;3896;48.758;8.888;2023-11-21T04:55:13;9.00;99.90
7708;DHT22;3896;48.758;8.888;2023-11-21T04:57:40;9.00;99.90
7708;DHT22;3896;48.758;8.888;2023-11-21T05:00:08;9.00;99.90
7708;DHT22;3896;48.758;8.888;2023-11-21T05:02:34;9.00;99.90
7708;DHT22;3896;48.758;8.888;2023-11-21T05:05:00;9.00;99.90
7708;DHT22;3896;48.758;8.888;2023-11-21T05:07:26;9.00;99.90
7708;DHT22;3896;48.758;8.888;2023-11-21T05:09:55;9.00;99.90
7708;DHT22;3896;48.758;8.888;2023-11-21T05:12:22;9.00;99.90
7708;DHT22;3896;48.758;8.888;2023-11-21T05:14:49;9.00;99.90
7708;DHT22;3896;48.758;8.888;2023-11-21T05:17:14;9.00;99.90
7708;DHT22;3896;48.758;8.888;2023-11-21T05:19:40;8.90;99.90
7708;DHT22;3896;48.758;8.888;2023-11-21T05:22:06;8.90;99.90
7708;DHT22;3896;48.758;8.888;2023-11-21T05:24:31;8.90;99.90
7708;DHT22;3896;48.758;8.888;2023-11-21T05:26:57;8.90;99.90
7708;DHT22;3896;48.758;8.888;2023-11-21T05:29:23;8.90;99.90
7708;DHT22;3896;48.758;8.888;2023-11-21T05:31:49;8.90;99.90
7708;DHT22;3896;48.758;8.888;2023-11-21T05:34:15;8.90;99.90
7708;DHT22;3896;48.758;8.888;2023-11-21T05:36:43;8.90;99.90
7708;DHT22;3896;48.758;8.888;2023-11-21T05:39:09;8.90;99.90
7708;DHT22;3896;48.758;8.888;2023-11-21T05:41:36;8.90;99.90
7708;DHT22;3896;48.758;8.888;2023-11-21T05:44:02;8.90;99.90
7708;DHT22;3896;48.758;8.888;2023-11-21T05:46:27;8.90;99.90
7708;DHT22;3896;48.758;8.888;2023-11-21T05:48:53;8.90;99.90
7708;DHT22;3896;48.758;8.888;2023-11-21T05:51:19;8.90;99.90
7708;DHT22;3896;48.758;8.888;2023-11-21T05:53:44;8.90;99.90
7708;DHT22;3896;48.758;8.888;2023-11-21T05:56:11;8.90;99.90
7708;DHT22;3896;48.758;8.888;2023-11-21T05:58:36;8.90;99.90
7708;DHT22;3896;48.758;8.888;2023-11-21T06:01:05;8.90;99.90
7708;DHT22;3896;48.758;8.888;2023-11-21T06:03:33;8.90;99.90
7708;DHT22;3896;48.758;8.888;2023-11-21T06:05:58;8.90;99.90
7708;DHT22;3896;48.758;8.888;2023-11-21T06:08:24;8.80;99.90
7708;DHT22;3896;48.758;8.888;2023-11-21T06:10:50;8.80;99.90
7708;DHT22;3896;48.758;8.888;2023-11-21T06:13:15;8.80;99.90
7708;DHT22;3896;48.758;8.888;2023-11-21T06:32:14;8.70;99.90
7708;DHT22;3896;48.758;8.888;2023-11-21T06:34:41;8.70;99.90
7708;DHT22;3896;48.758;8.888;2023-11-21T06:37:07;8.70;99.90
7708;DHT22;3896;48.758;8.888;2023-11-21T06:39:32;8.70;99.90
7708;DHT22;3896;48.758;8.888;2023-11-21T06:41:58;8.70;99.90
7708;DHT22;3896;48.758;8.888;2023-11-21T06:44:25;8.70;99.90
7708;DHT22;3896;48.758;8.888;2023-11-21T06:46:51;8.70;99.90
7708;DHT22;3896;48.758;8.888;2023-11-21T06:49:17;8.70;99.90
7708;DHT22;3896;48.758;8.888;2023-11-21T06:51:42;8.70;99.90
7708;DHT22;3896;48.758;8.888;2023-11-21T06:54:08;8.70;99.90
7708;DHT22;3896;48.758;8.888;2023-11-21T06:56:33;8.70;99.90
7708;DHT22;3896;48.758;8.888;2023-11-21T06:58:59;8.80;99.90
7708;DHT22;3896;48.758;8.888;2023-11-21T07:01:24;8.70;99.90
7708;DHT22;3896;48.758;8.888;2023-11-21T07:03:50;8.70;99.90
7708;DHT22;3896;48.758;8.888;2023-11-21T07:09:02;9.10;99.90
7708;DHT22;3896;48.758;8.888;2023-11-21T07:11:30;9.00;99.90
7708;DHT22;3896;48.758;8.888;2023-11-21T07:13:56;9.00;99.90
7708;DHT22;3896;48.758;8.888;2023-11-21T07:16:21;8.90;99.90
7708;DHT22;3896;48.758;8.888;2023-11-21T07:18:49;8.90;99.90
7708;DHT22;3896;48.758;8.888;2023-11-21T07:21:14;8.90;99.90
7708;DHT22;3896;48.758;8.888;2023-11-21T07:23:41;8.90;99.90
7708;DHT22;3896;48.758;8.888;2023-11-21T07:26:07;8.90;99.90
7708;DHT22;3896;48.758;8.888;2023-11-21T07:28:35;8.90;99.90
7708;DHT22;3896;48.758;8.888;2023-11-21T07:31:01;8.90;99.90
7708;DHT22;3896;48.758;8.888;2023-11-21T07:33:27;8.90;99.90
7708;DHT22;3896;48.758;8.888;2023-11-21T07:35:52;8.90;99.90
7708;DHT22;3896;48.758;8.888;2023-11-21T07:38:18;8.90;99.90
7708;DHT22;3896;48.758;8.888;2023-11-21T07:40:43;8.90;99.90
7708;DHT22;3896;48.758;8.888;2023-11-21T07:43:09;8.90;99.90
7708;DHT22;3896;48.758;8.888;2023-11-21T07:45:36;8.90;99.90
7708;DHT22;3896;48.758;8.888;2023-11-21T07:48:01;9.00;99.90
7708;DHT22;3896;48.758;8.888;2023-11-21T07:50:28;9.00;99.90
7708;DHT22;3896;48.758;8.888;2023-11-21T07:52:54;9.00;99.90
7708;DHT22;3896;48.758;8.888;2023-11-21T07:55:20;9.00;99.90
7708;DHT22;3896;48.758;8.888;2023-11-21T07:57:45;9.00;99.90
7708;DHT22;3896;48.758;8.888;2023-11-21T08:00:11;9.00;99.90
7708;DHT22;3896;48.758;8.888;2023-11-21T08:02:38;9.00;99.90
7708;DHT22;3896;48.758;8.888;2023-11-21T08:05:05;9.10;99.90
7708;DHT22;3896;48.758;8.888;2023-11-21T08:07:33;9.10;99.90
7708;DHT22;3896;48.758;8.888;2023-11-21T08:09:58;9.10;99.90
7708;DHT22;3896;48.758;8.888;2023-11-21T08:12:24;9.10;99.90
7708;DHT22;3896;48.758;8.888;2023-11-21T08:14:49;9.10;99.90
7708;DHT22;3896;48.758;8.888;2023-11-21T08:17:15;9.10;99.90
7708;DHT22;3896;48.758;8.888;2023-11-21T08:19:41;9.20;99.90
7708;DHT22;3896;48.758;8.888;2023-11-21T08:22:06;9.20;99.90
7708;DHT22;3896;48.758;8.888;2023-11-21T08:24:33;9.20;99.90
7708;DHT22;3896;48.758;8.888;2023-11-21T08:26:59;9.20;99.90
7708;DHT22;3896;48.758;8.888;2023-11-21T08:29:24;9.30;99.90
7708;DHT22;3896;48.758;8.888;2023-11-21T08:31:50;9.30;99.90
7708;DHT22;3896;48.758;8.888;2023-11-21T08:34:15;9.30;99.90
7708;DHT22;3896;48.758;8.888;2023-11-21T08:36:44;9.30;99.90
7708;DHT22;3896;48.758;8.888;2023-11-21T08:39:10;9.30;99.90
7708;DHT22;3896;48.758;8.888;2023-11-21T08:41:36;9.30;99.90
7708;DHT22;3896;48.758;8.888;2023-11-21T08:44:02;9.40;99.90
7708;DHT22;3896;48.758;8.888;2023-11-21T08:46:32;9.40;99.90
7708;DHT22;3896;48.758;8.888;2023-11-21T08:49:00;9.40;99.90
7708;DHT22;3896;48.758;8.888;2023-11-21T08:51:26;9.50;99.90
7708;DHT22;3896;48.758;8.888;2023-11-21T08:53:52;9.50;99.90
7708;DHT22;3896;48.758;8.888;2023-11-21T08:56:18;9.50;99.90
7708;DHT22;3896;48.758;8.888;2023-11-21T08:58:45;9.60;99.90
7708;DHT22;3896;48.758;8.888;2023-11-21T09:01:12;9.60;99.90
7708;DHT22;3896;48.758;8.888;2023-11-21T09:03:38;9.60;99.90
7708;DHT22;3896;48.758;8.888;2023-11-21T09:06:03;9.70;99.90
7708;DHT22;3896;48.758;8.888;2023-11-21T09:08:30;9.70;99.90
7708;DHT22;3896;48.758;8.888;2023-11-21T09:10:55;9.70;99.90
7708;DHT22;3896;48.758;8.888;2023-11-21T09:13:21;9.70;99.90
7708;DHT22;3896;48.758;8.888;2023-11-21T09:15:46;9.80;99.90
7708;DHT22;3896;48.758;8.888;2023-11-21T09:18:15;9.80;99.90
7708;DHT22;3896;48.758;8.888;2023-11-21T09:20:42;9.80;99.90
7708;DHT22;3896;48.758;8.888;2023-11-21T09:23:09;9.80;99.90
7708;DHT22;3896;48.758;8.888;2023-11-21T09:25:35;9.80;99.90
7708;DHT22;3896;48.758;8.888;2023-11-21T09:28:03;9.80;99.90
7708;DHT22;3896;48.758;8.888;2023-11-21T09:30:33;9.90;99.90
7708;DHT22;3896;48.758;8.888;2023-11-21T09:32:59;9.90;99.90
7708;DHT22;3896;48.758;8.888;2023-11-21T09:35:24;9.90;99.90
7708;DHT22;3896;48.758;8.888;2023-11-21T09:37:50;9.90;99.90
7708;DHT22;3896;48.758;8.888;2023-11-21T09:40:21;9.90;99.90
7708;DHT22;3896;48.758;8.888;2023-11-21T09:42:56;9.90;99.90
7708;DHT22;3896;48.758;8.888;2023-11-21T09:45:31;9.90;99.90
7708;DHT22;3896;48.758;8.888;2023-11-21T09:47:59;10.00;99.90
7708;DHT22;3896;48.758;8.888;2023-11-21T09:50:25;10.00;99.90
7708;DHT22;3896;48.758;8.888;2023-11-21T09:53:18;10.00;99.90
7708;DHT22;3896;48.758;8.888;2023-11-21T09:55:50;10.00;99.90
7708;DHT22;3896;48.758;8.888;2023-11-21T09:58:17;10.00;99.90
7708;DHT22;3896;48.758;8.888;2023-11-21T10:00:48;10.00;99.90
7708;DHT22;3896;48.758;8.888;2023-11-21T10:03:14;10.10;99.90
7708;DHT22;3896;48.758;8.888;2023-11-21T10:05:42;10.10;99.90
7708;DHT22;3896;48.758;8.888;2023-11-21T10:08:09;10.10;99.90
7708;DHT22;3896;48.758;8.888;2023-11-21T10:10:36;10.10;99.90
7708;DHT22;3896;48.758;8.888;2023-11-21T10:13:03;10.20;99.90
7708;DHT22;3896;48.758;8.888;2023-11-21T10:15:33;10.20;99.90
7708;DHT22;3896;48.758;8.888;2023-11-21T10:18:06;10.20;99.90
7708;DHT22;3896;48.758;8.888;2023-11-21T10:20:33;10.20;99.90
7708;DHT22;3896;48.758;8.888;2023-11-21T10:22:59;10.30;99.90
7708;DHT22;3896;48.758;8.888;2023-11-21T10:25:28;10.30;99.90
7708;DHT22;3896;48.758;8.888;2023-11-21T10:27:58;10.30;99.90
7708;DHT22;3896;48.758;8.888;2023-11-21T10:30:33;10.30;99.90
7708;DHT22;3896;48.758;8.888;2023-11-21T10:32:59;10.30;99.90
7708;DHT22;3896;48.758;8.888;2023-11-21T10:35:47;10.40;99.90
7708;DHT22;3896;48.758;8.888;2023-11-21T10:38:16;10.40;99.90
7708;DHT22;3896;48.758;8.888;2023-11-21T10:40:42;10.40;99.90
7708;DHT22;3896;48.758;8.888;2023-11-21T10:43:10;10.40;99.90
7708;DHT22;3896;48.758;8.888;2023-11-21T10:45:37;10.50;99.90
7708;DHT22;3896;48.758;8.888;2023-11-21T10:48:10;10.50;99.90
7708;DHT22;3896;48.758;8.888;2023-11-21T10:50:37;10.50;99.90
7708;DHT22;3896;48.758;8.888;2023-11-21T10:53:06;10.60;99.90
7708;DHT22;3896;48.758;8.888;2023-11-21T10:55:33;10.60;99.90
7708;DHT22;3896;48.758;8.888;2023-11-21T10:58:03;10.60;99.90
7708;DHT22;3896;48.758;8.888;2023-11-21T11:00:30;10.60;99.90
7708;DHT22;3896;48.758;8.888;2023-11-21T11:02:57;10.60;99.90
7708;DHT22;3896;48.758;8.888;2023-11-21T11:05:25;10.70;99.90
7708;DHT22;3896;48.758;8.888;2023-11-21T11:08:21;10.70;99.90
7708;DHT22;3896;48.758;8.888;2023-11-21T11:10:51;10.70;99.90
7708;DHT22;3896;48.758;8.888;2023-11-21T11:13:21;10.70;99.90
7708;DHT22;3896;48.758;8.888;2023-11-21T11:15:50;10.80;99.90
7708;DHT22;3896;48.758;8.888;2023-11-21T11:18:16;10.80;99.90
7708;DHT22;3896;48.758;8.888;2023-11-21T11:20:43;10.80;99.90
7708;DHT22;3896;48.758;8.888;2023-11-21T11:29:33;10.80;99.90
7708;DHT22;3896;48.758;8.888;2023-11-21T11:35:10;10.80;99.90
7708;DHT22;3896;48.758;8.888;2023-11-21T11:37:42;10.80;99.90
7708;DHT22;3896;48.758;8.888;2023-11-21T11:40:08;10.90;99.90
7708;DHT22;3896;48.758;8.888;2023-11-21T11:42:36;10.90;99.90
7708;DHT22;3896;48.758;8.888;2023-11-21T11:45:01;10.90;99.90
7708;DHT22;3896;48.758;8.888;2023-11-21T11:47:30;10.90;99.90
7708;DHT22;3896;48.758;8.888;2023-11-21T11:50:12;11.00;99.90
7708;DHT22;3896;48.758;8.888;2023-11-21T11:52:49;11.00;99.90
7708;DHT22;3896;48.758;8.888;2023-11-21T11:55:19;11.00;99.90
7708;DHT22;3896;48.758;8.888;2023-11-21T11:57:46;11.10;99.90
7708;DHT22;3896;48.758;8.888;2023-11-21T12:00:33;11.10;99.90
7708;DHT22;3896;48.758;8.888;2023-11-21T12:03:03;11.10;99.90
7708;DHT22;3896;48.758;8.888;2023-11-21T12:05:33;11.10;99.90
7708;DHT22;3896;48.758;8.888;2023-11-21T12:08:05;11.10;99.90
7708;DHT22;3896;48.758;8.888;2023-11-21T12:10:33;11.20;99.90
7708;DHT22;3896;48.758;8.888;2023-11-21T12:13:09;11.20;99.90
7708;DHT22;3896;48.758;8.888;2023-11-21T12:15:37;11.20;99.90
7708;DHT22;3896;48.758;8.888;2023-11-21T12:18:04;11.20;99.90
7708;DHT22;3896;48.758;8.888;2023-11-21T12:20:32;11.20;99.90
7708;DHT22;3896;48.758;8.888;2023-11-21T12:23:04;11.20;99.90
7708;DHT22;3896;48.758;8.888;2023-11-21T12:25:31;11.20;99.90
7708;DHT22;3896;48.758;8.888;2023-11-21T12:27:58;11.30;99.90
7708;DHT22;3896;48.758;8.888;2023-11-21T12:30:26;11.30;99.90
7708;DHT22;3896;48.758;8.888;2023-11-21T12:32:57;11.30;99.90
7708;DHT22;3896;48.758;8.888;2023-11-21T12:35:28;11.40;99.90
7708;DHT22;3896;48.758;8.888;2023-11-21T12:37:55;11.30;99.90
7708;DHT22;3896;48.758;8.888;2023-11-21T12:40:23;11.40;99.90
7708;DHT22;3896;48.758;8.888;2023-11-21T12:42:57;11.40;99.90
7708;DHT22;3896;48.758;8.888;2023-11-21T12:45:26;11.40;99.90
7708;DHT22;3896;48.758;8.888;2023-11-21T12:50:26;11.40;99.90
7708;DHT22;3896;48.758;8.888;2023-11-21T12:53:03;11.40;99.90
7708;DHT22;3896;48.758;8.888;2023-11-21T12:55:31;11.40;99.90
7708;DHT22;3896;48.758;8.888;2023-11-21T12:57:58;11.40;99.90
7708;DHT22;3896;48.758;8.888;2023-11-21T13:00:34;11.40;99.90
7708;DHT22;3896;48.758;8.888;2023-11-21T13:03:09;11.40;99.90
7708;DHT22;3896;48.758;8.888;2023-11-21T13:05:38;11.40;99.90
7708;DHT22;3896;48.758;8.888;2023-11-21T13:08:06;11.40;99.90
7708;DHT22;3896;48.758;8.888;2023-11-21T13:10:34;11.40;99.90
7708;DHT22;3896;48.758;8.888;2023-11-21T13:13:02;11.40;99.90
7708;DHT22;3896;48.758;8.888;2023-11-21T13:15:31;11.40;99.90
7708;DHT22;3896;48.758;8.888;2023-11-21T13:17:58;11.40;99.90
7708;DHT22;3896;48.758;8.888;2023-11-21T13:20:25;11.40;99.90
7708;DHT22;3896;48.758;8.888;2023-11-21T13:22:57;11.40;99.90
7708;DHT22;3896;48.758;8.888;2023-11-21T13:25:25;11.40;99.90
7708;DHT22;3896;48.758;8.888;2023-11-21T13:27:56;11.40;99.90
7708;DHT22;3896;48.758;8.888;2023-11-21T13:30:23;11.40;99.90
7708;DHT22;3896;48.758;8.888;2023-11-21T13:32:52;11.40;99.90
7708;DHT22;3896;48.758;8.888;2023-11-21T13:35:19;11.30;99.90
7708;DHT22;3896;48.758;8.888;2023-11-21T13:37:56;11.40;99.90
7708;DHT22;3896;48.758;8.888;2023-11-21T13:40:25;11.30;99.90
7708;DHT22;3896;48.758;8.888;2023-11-21T13:42:54;11.30;99.90
7708;DHT22;3896;48.758;8.888;2023-11-21T13:45:23;11.30;99.90
7708;DHT22;3896;48.758;8.888;2023-11-21T13:47:52;11.30;99.90
7708;DHT22;3896;48.758;8.888;2023-11-21T13:50:23;11.30;99.90
7708;DHT22;3896;48.758;8.888;2023-11-21T13:52:52;11.30;99.90
7708;DHT22;3896;48.758;8.888;2023-11-21T13:55:19;11.20;99.90
7708;DHT22;3896;48.758;8.888;2023-11-21T13:57:45;11.20;99.90
7708;DHT22;3896;48.758;8.888;2023-11-21T14:00:15;11.20;99.90
7708;DHT22;3896;48.758;8.888;2023-11-21T14:03:16;11.10;99.90
7708;DHT22;3896;48.758;8.888;2023-11-21T14:05:48;11.10;99.90
7708;DHT22;3896;48.758;8.888;2023-11-21T14:08:20;11.00;99.90
7708;DHT22;3896;48.758;8.888;2023-11-21T14:10:49;11.00;99.90
7708;DHT22;3896;48.758;8.888;2023-11-21T14:13:28;11.00;99.90
7708;DHT22;3896;48.758;8.888;2023-11-21T14:15:54;10.90;99.90
7708;DHT22;3896;48.758;8.888;2023-11-21T14:18:24;10.90;99.90
7708;DHT22;3896;48.758;8.888;2023-11-21T14:20:59;10.90;99.90
7708;DHT22;3896;48.758;8.888;2023-11-21T14:23:25;10.90;99.90
7708;DHT22;3896;48.758;8.888;2023-11-21T14:25:50;10.80;99.90
7708;DHT22;3896;48.758;8.888;2023-11-21T14:28:17;10.80;99.90
7708;DHT22;3896;48.758;8.888;2023-11-21T14:30:45;10.70;99.90
7708;DHT22;3896;48.758;8.888;2023-11-21T14:33:12;10.70;99.90
7708;DHT22;3896;48.758;8.888;2023-11-21T14:35:37;10.70;99.90
7708;DHT22;3896;48.758;8.888;2023-11-21T14:38:03;10.70;99.90
7708;DHT22;3896;48.758;8.888;2023-11-21T14:40:31;10.70;99.90
7708;DHT22;3896;48.758;8.888;2023-11-21T14:43:00;10.70;99.90
7708;DHT22;3896;48.758;8.888;2023-11-21T14:45:25;10.70;99.90
7708;DHT22;3896;48.758;8.888;2023-11-21T14:47:52;10.70;99.90
7708;DHT22;3896;48.758;8.888;2023-11-21T14:50:30;10.60;99.90
7708;DHT22;3896;48.758;8.888;2023-11-21T14:53:04;10.60;99.90
7708;DHT22;3896;48.758;8.888;2023-11-21T14:55:37;10.60;99.90
7708;DHT22;3896;48.758;8.888;2023-11-21T14:58:15;10.60;99.90
7708;DHT22;3896;48.758;8.888;2023-11-21T15:00:48;10.50;99.90
7708;DHT22;3896;48.758;8.888;2023-11-21T15:03:16;10.50;99.90
7708;DHT22;3896;48.758;8.888;2023-11-21T15:05:57;10.50;99.90
7708;DHT22;3896;48.758;8.888;2023-11-21T15:08:24;10.40;99.90
7708;DHT22;3896;48.758;8.888;2023-11-21T15:10:57;10.40;99.90
7708;DHT22;3896;48.758;8.888;2023-11-21T15:13:23;10.40;99.90
7708;DHT22;3896;48.758;8.888;2023-11-21T15:15:52;10.40;99.90
7708;DHT22;3896;48.758;8.888;2023-11-21T15:18:20;10.40;99.90
7708;DHT22;3896;48.758;8.888;2023-11-21T15:20:46;10.30;99.90
7708;DHT22;3896;48.758;8.888;2023-11-21T15:23:12;10.30;99.90
7708;DHT22;3896;48.758;8.888;2023-11-21T15:25:42;10.30;99.90
7708;DHT22;3896;48.758;8.888;2023-11-21T15:28:07;10.30;99.90
7708;DHT22;3896;48.758;8.888;2023-11-21T15:30:33;10.30;99.90
7708;DHT22;3896;48.758;8.888;2023-11-21T15:32:59;10.20;99.90
7708;DHT22;3896;48.758;8.888;2023-11-21T15:35:24;10.50;99.90
7708;DHT22;3896;48.758;8.888;2023-11-21T15:37:52;10.40;99.90
7708;DHT22;3896;48.758;8.888;2023-11-21T15:40:18;10.30;99.90
7708;DHT22;3896;48.758;8.888;2023-11-21T15:42:43;10.30;99.90
7708;DHT22;3896;48.758;8.888;2023-11-21T15:45:10;10.30;99.90
7708;DHT22;3896;48.758;8.888;2023-11-21T15:47:35;10.20;99.90
7708;DHT22;3896;48.758;8.888;2023-11-21T15:50:01;10.20;99.90
7708;DHT22;3896;48.758;8.888;2023-11-21T15:52:29;10.20;99.90
7708;DHT22;3896;48.758;8.888;2023-11-21T15:54:55;10.20;99.90
7708;DHT22;3896;48.758;8.888;2023-11-21T15:57:20;10.10;99.90
7708;DHT22;3896;48.758;8.888;2023-11-21T15:59:47;10.10;99.90
7708;DHT22;3896;48.758;8.888;2023-11-21T16:02:13;10.10;99.90
7708;DHT22;3896;48.758;8.888;2023-11-21T16:04:41;10.10;99.90
7708;DHT22;3896;48.758;8.888;2023-11-21T16:07:08;10.00;99.90
7708;DHT22;3896;48.758;8.888;2023-11-21T16:09:35;10.00;99.90
7708;DHT22;3896;48.758;8.888;2023-11-21T16:12:04;10.00;99.90
7708;DHT22;3896;48.758;8.888;2023-11-21T16:14:32;10.00;99.90
7708;DHT22;3896;48.758;8.888;2023-11-21T16:17:11;10.00;99.90
7708;DHT22;3896;48.758;8.888;2023-11-21T16:19:40;10.00;99.90
7708;DHT22;3896;48.758;8.888;2023-11-21T16:22:07;9.90;99.90
7708;DHT22;3896;48.758;8.888;2023-11-21T16:24:33;9.90;99.90
7708;DHT22;3896;48.758;8.888;2023-11-21T16:27:02;9.90;99.90
7708;DHT22;3896;48.758;8.888;2023-11-21T16:29:27;9.90;99.90
7708;DHT22;3896;48.758;8.888;2023-11-21T16:31:56;9.80;99.90
7708;DHT22;3896;48.758;8.888;2023-11-21T16:34:22;9.80;99.90
7708;DHT22;3896;48.758;8.888;2023-11-21T16:36:48;9.80;99.90
7708;DHT22;3896;48.758;8.888;2023-11-21T16:39:17;9.80;99.90
7708;DHT22;3896;48.758;8.888;2023-11-21T16:41:44;9.70;99.90
7708;DHT22;3896;48.758;8.888;2023-11-21T16:44:14;9.70;99.90